Home > Products > Valid Products > TAF

000
FTUS42 KMHX 252300
TAFEWN
TAF
KEWN 252321Z 2600/2624 15006KT P6SM SKC
     FM260600 20003KT P6SM SCT100 BKN250
     FM261000 22004KT P6SM OVC100
     FM261800 26005KT P6SM OVC050
     FM262200 30008KT P6SM VCSH OVC030=



000
FTUS42 KMHX 251700
TAFEWN
TAF
KEWN 251738Z 2518/2618 VRB06KT P6SM SKC
     FM260600 20003KT P6SM SCT100 BKN250
     FM261000 22004KT P6SM OVC100
     FM261600 26005KT P6SM OVC050=



000
FTUS42 KMHX 251100
TAFEWN
TAF
KEWN 251121Z 2512/2612 28006KT P6SM SKC
     FM260700 20003KT P6SM SCT080 BKN150=



000
FTUS42 KMHX 250500
TAFEWN
TAF
KEWN 250521Z 2506/2606 27005KT P6SM SKC=



000
FTUS42 KMHX 242300
TAFEWN
TAF
KEWN 242320Z 2500/2524 28005KT P6SM SKC=



000
FTUS42 KMHX 241700 CCA
TAFEWN
TAF COR
KEWN 241754Z 2418/2518 30008G15KT P6SM VCSH OVC010
     FM242000 29012G20KT P6SM BKN025
     FM250000 28006KT P6SM SKC=



000
FTUS42 KMHX 241700 RRA
TAFEWN
TAF
KEWN 241741Z 2418/2518 30008G15KT P6SM VCSH OVC008
     FM242000 29012G20KT P6SM BKN025
     FM250000 28006KT P6SM SKC=



000
FTUS42 KMHX 241100
TAFEWN
TAF
KEWN 241140Z 2412/2512 31010G16KT 4SM RA BR OVC006
     FM241800 30013G22KT P6SM BKN025
     FM242200 28007KT P6SM SKC=



000
FTUS42 KMHX 241000 AAA
TAFEWN
TAF AMD
KEWN 241043Z 2411/2506 25009G16KT 3SM RA BR BKN009
     FM241100 28010KT 4SM RA BR OVC006
     FM241800 30013G22KT P6SM BKN025
     FM242200 28007KT P6SM SKC=



000
FTUS42 KMHX 240500
TAFEWN
TAF
KEWN 240539Z 2406/2506 18012G20KT 5SM RA BR SCT015 BKN030
      WS015/19040KT
      TEMPO 2406/2409 3SM +RA SCT007 BKN015
     FM240900 26009KT 3SM RA BR BKN006
     FM241800 30013G22KT P6SM BKN025
     FM242200 28007KT P6SM SKC=



000
FTUS42 KMHX 240400 AAA
TAFEWN
TAF AMD
KEWN 240428Z 2404/2424 17012KT 3SM RA BR SCT015 BKN030
      WS015/19040KT
      TEMPO 2406/2409 2SM +RA BKN015
     FM241400 31013G22KT 3SM -RA BR BKN006
     FM242000 30010G20KT P6SM BKN025=



000
FTUS42 KMHX 232300 RRA
TAFEWN
TAF
KEWN 232347Z 2400/2424 10008KT 5SM RA BR OVC008
     FM240800 17012G18KT 2SM RA BR OVC004
     FM241400 31012G22KT 3SM -RA BR OVC006
     FM242000 30010G20KT P6SM BKN025=



000
FTUS42 KMHX 231700
TAFEWN
TAF
KEWN 231720Z 2318/2418 06010KT P6SM VCSH OVC040
     FM232000 08010KT 5SM -RA BR OVC025
     FM232300 12010KT 3SM RA BR SCT005 OVC008 WS015/13035KT
     FM240600 17012G20KT 2SM RA BR OVC004 WS015/20040KT=



000
FTUS42 KMHX 231500 AAA
TAFEWN
TAF AMD
KEWN 231537Z 2316/2412 08010KT P6SM BKN050 OVC060
     FM231800 06010KT P6SM -RA OVC035
     FM232200 08010KT 3SM RA BR SCT005 OVC009
     FM240200 17015G23KT 1 1/2SM RA BR OVC005 WS015/19040KT=



000
FTUS42 KMHX 231100 RRA
TAFEWN
TAF
KEWN 231141Z 2312/2412 06008KT P6SM BKN060 BKN100
     FM231800 06010KT P6SM -RA OVC035
     FM232200 08010KT 3SM RA BR SCT005 OVC009
     FM240200 17015G23KT 1 1/2SM RA BR OVC005 WS015/19040KT=



000
FTUS42 KMHX 230500
TAFEWN
TAF
KEWN 230534Z 2306/2406 06005KT P6SM FEW100 SCT200
     FM231000 06006KT P6SM BKN100
     FM231800 07010KT P6SM -RA OVC045
     FM232200 08010KT 3SM RA BR SCT005 OVC009
     FM240100 14015G23KT 1 1/2SM RA BR OVC005=



    US Dept of Commerce
    National Oceanic and Atmospheric Administration
    National Weather Service
    1325 East West Highway
    Silver Spring, MD 20910
    Page Author: NWS Internet Services Team
Disclaimer
Information Quality
Credits
Glossary
Privacy Policy
Freedom of Information Act (FOIA)
About Us
Career Opportunities